createdAt,value
2017-04-25T00:00:10.248Z,8.28
2017-04-25T00:01:11.486Z,8.29
2017-04-25T00:02:12.742Z,8.11
2017-04-25T00:03:13.969Z,8.08
2017-04-25T00:04:15.204Z,7.96
2017-04-25T00:05:16.448Z,7.84
2017-04-25T00:06:17.702Z,7.75
2017-04-25T00:07:18.959Z,7.66
2017-04-25T00:08:20.230Z,7.6
2017-04-25T00:09:21.467Z,7.59
2017-04-25T00:10:22.781Z,7.5
2017-04-25T00:11:23.997Z,7.47
2017-04-25T00:12:25.229Z,7.4
2017-04-25T00:13:26.474Z,7.32
2017-04-25T00:14:27.721Z,7.2
2017-04-25T00:15:28.987Z,7.23
2017-04-25T00:16:30.210Z,7.13
2017-04-25T00:17:31.452Z,7.22
2017-04-25T00:18:32.712Z,7.23
2017-04-25T00:19:33.952Z,7.13
2017-04-25T00:20:35.245Z,7.19
2017-04-25T00:21:36.581Z,7.08
2017-04-25T00:22:37.845Z,7.08
2017-04-25T00:23:39.130Z,7.07
2017-04-25T00:24:40.368Z,7.08
2017-04-25T00:25:41.601Z,7.05
2017-04-25T00:26:42.824Z,7.09
2017-04-25T00:27:44.065Z,7.09
2017-04-25T00:28:45.345Z,7.01
2017-04-25T00:29:46.588Z,6.98
2017-04-25T00:30:47.832Z,6.97
2017-04-25T00:31:49.069Z,6.94
2017-04-25T00:32:50.314Z,6.94
2017-04-25T00:33:51.548Z,6.91
2017-04-25T00:34:52.790Z,6.86
2017-04-25T00:35:54.033Z,6.81
2017-04-25T00:36:55.262Z,6.84
2017-04-25T00:37:56.521Z,6.86
2017-04-25T00:38:57.743Z,6.84
2017-04-25T00:39:59.024Z,6.86
2017-04-25T00:41:00.265Z,6.83
2017-04-25T00:42:01.507Z,6.86
2017-04-25T00:43:02.787Z,6.81
2017-04-25T00:44:04.049Z,6.72
2017-04-25T00:45:05.271Z,6.8
2017-04-25T00:46:06.582Z,6.73
2017-04-25T00:47:07.797Z,6.72
2017-04-25T00:48:09.097Z,6.73
2017-04-25T00:49:10.421Z,6.73
2017-04-25T00:50:11.696Z,6.83
2017-04-25T00:51:12.930Z,6.71
2017-04-25T00:52:14.171Z,6.71
2017-04-25T00:53:15.424Z,6.84
2017-04-25T00:54:16.709Z,6.83
2017-04-25T00:55:17.992Z,6.76
2017-04-25T00:56:19.241Z,6.71
2017-04-25T00:57:20.499Z,6.73
2017-04-25T00:58:21.741Z,6.73
2017-04-25T00:59:22.989Z,6.77
2017-04-25T01:00:24.260Z,6.76
2017-04-25T01:01:25.498Z,6.66
2017-04-25T01:02:26.860Z,6.71
2017-04-25T01:03:28.086Z,6.72
2017-04-25T01:04:29.323Z,6.71
2017-04-25T01:05:30.574Z,6.73
2017-04-25T01:06:31.841Z,6.77
2017-04-25T01:07:33.100Z,6.71
2017-04-25T01:08:34.333Z,6.73
2017-04-25T01:09:35.570Z,6.76
2017-04-25T01:10:36.875Z,6.71
2017-04-25T01:11:38.164Z,6.79
2017-04-25T01:12:39.411Z,6.77
2017-04-25T01:13:40.675Z,6.81
2017-04-25T01:14:41.945Z,6.73
2017-04-25T01:15:43.170Z,6.71
2017-04-25T01:16:44.480Z,6.77
2017-04-25T01:17:45.692Z,6.77
2017-04-25T01:18:46.937Z,6.76
2017-04-25T01:19:48.195Z,6.71
2017-04-25T01:20:49.429Z,6.76
2017-04-25T01:21:50.678Z,6.73
2017-04-25T01:22:51.932Z,6.71
2017-04-25T01:23:53.149Z,6.65
2017-04-25T01:24:54.388Z,6.73
2017-04-25T01:25:55.653Z,6.71
2017-04-25T01:26:56.878Z,6.69
2017-04-25T01:27:58.116Z,6.76
2017-04-25T01:28:59.363Z,6.71
2017-04-25T01:30:00.671Z,6.79
2017-04-25T01:31:02.006Z,6.65
2017-04-25T01:32:03.244Z,6.73
2017-04-25T01:33:04.536Z,6.76
2017-04-25T01:34:05.850Z,6.76
2017-04-25T01:35:07.110Z,6.71
2017-04-25T01:36:08.448Z,6.76
2017-04-25T01:37:09.719Z,6.76
2017-04-25T01:38:10.957Z,6.66
2017-04-25T01:39:12.277Z,6.71
2017-04-25T01:40:13.534Z,6.63
2017-04-25T01:41:14.859Z,6.65
2017-04-25T01:42:16.101Z,6.66
2017-04-25T01:43:17.424Z,6.61
2017-04-25T01:44:18.671Z,6.66
2017-04-25T01:45:20.012Z,6.68
2017-04-25T01:46:21.252Z,6.69
2017-04-25T01:47:22.511Z,6.66
2017-04-25T01:48:23.757Z,6.62
2017-04-25T01:49:25.030Z,6.62
2017-04-25T01:50:26.430Z,6.66
2017-04-25T01:51:27.718Z,6.59
2017-04-25T01:52:28.965Z,6.66
2017-04-25T01:53:30.222Z,6.66
2017-04-25T01:54:31.451Z,6.63
2017-04-25T01:55:32.690Z,6.61
2017-04-25T01:56:33.981Z,6.69
2017-04-25T01:57:35.210Z,6.59
2017-04-25T01:58:36.527Z,6.62
2017-04-25T01:59:37.758Z,6.71
2017-04-25T02:00:39.052Z,6.54
2017-04-25T02:01:40.287Z,6.56
2017-04-25T02:02:41.605Z,6.53
2017-04-25T02:03:42.816Z,6.53
2017-04-25T02:04:44.111Z,6.54
2017-04-25T02:05:45.356Z,6.59
2017-04-25T02:06:46.588Z,6.51
2017-04-25T02:07:47.866Z,6.54
2017-04-25T02:08:49.118Z,6.61
2017-04-25T02:09:50.451Z,6.48
2017-04-25T02:10:51.786Z,6.53
2017-04-25T02:11:53.035Z,6.58
2017-04-25T02:12:54.360Z,6.59
2017-04-25T02:13:55.621Z,6.58
2017-04-25T02:14:56.959Z,6.56
2017-04-25T02:15:58.181Z,6.5
2017-04-25T02:16:59.426Z,6.47
2017-04-25T02:18:00.793Z,6.53
2017-04-25T02:19:02.035Z,6.51
2017-04-25T02:20:03.311Z,6.54
2017-04-25T02:21:04.546Z,6.48
2017-04-25T02:22:05.784Z,6.59
2017-04-25T02:23:07.051Z,6.4
2017-04-25T02:24:08.292Z,6.48
2017-04-25T02:25:09.508Z,6.47
2017-04-25T02:26:10.817Z,6.46
2017-04-25T02:27:12.062Z,6.33
2017-04-25T02:28:13.350Z,6.38
2017-04-25T02:29:14.577Z,6.38
2017-04-25T02:30:15.818Z,6.41
2017-04-25T02:31:17.056Z,6.35
2017-04-25T02:32:18.293Z,6.36
2017-04-25T02:33:19.582Z,6.41
2017-04-25T02:34:20.779Z,6.3
2017-04-25T02:35:22.155Z,6.41
2017-04-25T02:36:23.385Z,6.41
2017-04-25T02:37:24.637Z,6.38
2017-04-25T02:38:25.869Z,6.28
2017-04-25T02:39:27.249Z,6.32
2017-04-25T02:40:28.496Z,6.4
2017-04-25T02:41:29.746Z,6.33
2017-04-25T02:42:31.016Z,6.33
2017-04-25T02:43:32.264Z,6.44
2017-04-25T02:44:33.506Z,6.38
2017-04-25T02:45:34.850Z,6.36
2017-04-25T02:46:36.120Z,6.3
2017-04-25T02:47:37.348Z,6.38
2017-04-25T02:48:38.602Z,6.3
2017-04-25T02:49:39.850Z,6.29
2017-04-25T02:50:41.147Z,6.3
2017-04-25T02:51:42.457Z,6.32
2017-04-25T02:52:43.710Z,6.35
2017-04-25T02:53:44.995Z,6.26
2017-04-25T02:54:46.224Z,6.28
2017-04-25T02:55:47.463Z,6.26
2017-04-25T02:56:48.700Z,6.29
2017-04-25T02:57:49.990Z,6.3
2017-04-25T02:58:51.260Z,6.32
2017-04-25T02:59:52.487Z,6.26
2017-04-25T03:00:53.762Z,6.26
2017-04-25T03:01:54.988Z,6.32
2017-04-25T03:02:56.259Z,6.25
2017-04-25T03:03:57.497Z,6.33
2017-04-25T03:04:58.881Z,6.29
2017-04-25T03:06:00.153Z,6.3
2017-04-25T03:07:01.384Z,6.32
2017-04-25T03:08:02.631Z,6.28
2017-04-25T03:09:03.871Z,6.41
2017-04-25T03:10:05.130Z,6.28
2017-04-25T03:11:06.407Z,6.29
2017-04-25T03:12:07.664Z,6.32
2017-04-25T03:13:08.900Z,6.29
2017-04-25T03:14:10.133Z,6.3
2017-04-25T03:15:11.382Z,6.38
2017-04-25T03:16:12.615Z,6.3
2017-04-25T03:17:13.888Z,6.3
2017-04-25T03:18:15.138Z,6.3
2017-04-25T03:19:16.493Z,6.29
2017-04-25T03:20:17.728Z,6.33
2017-04-25T03:21:18.986Z,6.3
2017-04-25T03:22:20.268Z,6.38
2017-04-25T03:23:21.690Z,6.33
2017-04-25T03:24:22.991Z,6.33
2017-04-25T03:25:24.267Z,6.35
2017-04-25T03:26:25.526Z,6.3
2017-04-25T03:27:26.809Z,6.26
2017-04-25T03:28:28.052Z,6.29
2017-04-25T03:29:29.283Z,6.29
2017-04-25T03:30:30.555Z,6.25
2017-04-25T03:31:31.924Z,6.26
2017-04-25T03:32:33.151Z,6.28
2017-04-25T03:33:34.445Z,6.33
2017-04-25T03:34:35.674Z,6.28
2017-04-25T03:35:36.980Z,6.26
2017-04-25T03:36:38.296Z,6.26
2017-04-25T03:37:39.489Z,6.28
2017-04-25T03:38:40.728Z,6.3
2017-04-25T03:39:41.947Z,6.26
2017-04-25T03:40:43.206Z,6.28
2017-04-25T03:41:44.439Z,6.28
2017-04-25T03:42:45.678Z,6.28
2017-04-25T03:43:46.975Z,6.26
2017-04-25T03:44:48.217Z,6.3
2017-04-25T03:45:49.455Z,6.26
2017-04-25T03:46:50.739Z,6.25
2017-04-25T03:47:52.033Z,6.25
2017-04-25T03:48:53.309Z,6.16
2017-04-25T03:49:54.578Z,6.18
2017-04-25T03:50:55.842Z,6.22
2017-04-25T03:51:57.150Z,6.22
2017-04-25T03:52:58.350Z,6.19
2017-04-25T03:53:59.589Z,6.26
2017-04-25T03:55:00.867Z,6.19
2017-04-25T03:56:02.117Z,6.18
2017-04-25T03:57:03.351Z,6.26
2017-04-25T03:58:04.643Z,6.26
2017-04-25T03:59:05.856Z,6.29
2017-04-25T04:00:07.090Z,6.3
2017-04-25T04:01:08.332Z,6.21
2017-04-25T04:02:09.574Z,6.29
2017-04-25T04:03:10.810Z,6.3
2017-04-25T04:04:12.042Z,6.32
2017-04-25T04:05:13.343Z,6.25
2017-04-25T04:06:14.576Z,6.29
2017-04-25T04:07:15.845Z,6.25
2017-04-25T04:08:17.064Z,6.26
2017-04-25T04:09:18.411Z,6.32
2017-04-25T04:10:19.856Z,6.29
2017-04-25T04:11:21.038Z,6.29
2017-04-25T04:12:22.292Z,6.25
2017-04-25T04:13:23.505Z,6.29
2017-04-25T04:14:24.736Z,6.29
2017-04-25T04:15:25.972Z,6.33
2017-04-25T04:16:27.212Z,6.33
2017-04-25T04:17:28.447Z,6.41
2017-04-25T04:18:29.703Z,6.41
2017-04-25T04:19:30.927Z,6.3
2017-04-25T04:20:32.279Z,6.46
2017-04-25T04:21:33.521Z,6.44
2017-04-25T04:22:34.755Z,6.47
2017-04-25T04:23:36.028Z,6.48
2017-04-25T04:24:37.277Z,6.54
2017-04-25T04:25:38.605Z,6.47
2017-04-25T04:26:39.824Z,6.56
2017-04-25T04:27:41.077Z,6.61
2017-04-25T04:28:42.298Z,6.56
2017-04-25T04:29:43.517Z,6.56
2017-04-25T04:30:44.870Z,6.63
2017-04-25T04:31:46.123Z,6.61
2017-04-25T04:32:47.374Z,6.51
2017-04-25T04:33:48.646Z,6.5
2017-04-25T04:34:49.881Z,6.5
2017-04-25T04:35:51.173Z,6.63
2017-04-25T04:36:52.414Z,6.58
2017-04-25T04:37:53.645Z,6.63
2017-04-25T04:38:54.981Z,6.62
2017-04-25T04:39:56.223Z,6.66
2017-04-25T04:40:57.459Z,6.59
2017-04-25T04:41:58.698Z,6.65
2017-04-25T04:42:59.977Z,6.65
2017-04-25T04:44:01.186Z,6.62
2017-04-25T04:45:02.529Z,6.66
2017-04-25T04:46:03.780Z,6.71
2017-04-25T04:47:05.041Z,6.72
2017-04-25T04:48:06.278Z,6.72
2017-04-25T04:49:07.516Z,6.81
2017-04-25T04:50:08.762Z,6.69
2017-04-25T04:51:10.045Z,6.77
2017-04-25T04:52:11.360Z,6.81
2017-04-25T04:53:12.579Z,6.79
2017-04-25T04:54:13.817Z,6.79
2017-04-25T04:55:15.060Z,6.73
2017-04-25T04:56:16.302Z,6.72
2017-04-25T04:57:17.535Z,6.86
2017-04-25T04:58:18.804Z,6.83
2017-04-25T04:59:20.049Z,6.86
2017-04-25T05:00:21.278Z,6.81
2017-04-25T05:01:22.540Z,6.86
2017-04-25T05:02:23.754Z,6.81
2017-04-25T05:03:25.015Z,6.83
2017-04-25T05:04:26.259Z,6.84
2017-04-25T05:05:27.540Z,6.87
2017-04-25T05:06:28.911Z,6.91
2017-04-25T05:07:30.195Z,7.04
2017-04-25T05:08:31.435Z,6.9
2017-04-25T05:09:32.830Z,7.09
2017-04-25T05:10:34.072Z,7.04
2017-04-25T05:11:35.315Z,7.07
2017-04-25T05:12:36.591Z,7.12
2017-04-25T05:13:37.984Z,7.07
2017-04-25T05:14:39.111Z,7.12
2017-04-25T05:15:40.492Z,7.19
2017-04-25T05:16:41.733Z,7.17
2017-04-25T05:17:43.069Z,7.22
2017-04-25T05:18:44.317Z,7.26
2017-04-25T05:19:45.558Z,7.27
2017-04-25T05:20:46.797Z,7.23
2017-04-25T05:21:48.028Z,7.23
2017-04-25T05:22:49.287Z,7.26
2017-04-25T05:23:50.559Z,7.26
2017-04-25T05:24:51.773Z,7.24
2017-04-25T05:25:53.074Z,7.23
2017-04-25T05:26:54.305Z,7.24
2017-04-25T05:27:55.540Z,7.22
2017-04-25T05:28:56.777Z,7.31
2017-04-25T05:29:58.086Z,7.2
2017-04-25T05:30:59.456Z,7.34
2017-04-25T05:32:00.697Z,7.4
2017-04-25T05:33:01.937Z,7.26
2017-04-25T05:34:03.170Z,7.19
2017-04-25T05:35:04.437Z,7.17
2017-04-25T05:36:05.662Z,7.07
2017-04-25T05:37:06.955Z,7.07
2017-04-25T05:38:08.293Z,7.13
2017-04-25T05:39:09.524Z,7.22
2017-04-25T05:40:10.798Z,7.37
2017-04-25T05:41:12.041Z,7.42
2017-04-25T05:42:13.303Z,7.71
2017-04-25T05:43:14.681Z,7.87
2017-04-25T05:44:16.039Z,8.12
2017-04-25T05:45:17.273Z,8.4
2017-04-25T05:46:18.575Z,8.94
2017-04-25T05:47:19.837Z,9.48
2017-04-25T05:48:21.165Z,9.91
2017-04-25T05:49:22.464Z,10.43
2017-04-25T05:50:23.681Z,11.03
2017-04-25T05:51:24.988Z,11.67
2017-04-25T05:52:26.238Z,11.89
2017-04-25T05:53:27.548Z,12.33
2017-04-25T05:54:28.856Z,12.7
2017-04-25T05:55:30.090Z,13.07
2017-04-25T05:56:31.312Z,13.43
2017-04-25T05:57:32.577Z,13.52
2017-04-25T05:58:33.804Z,13.76
2017-04-25T05:59:35.100Z,13.94
2017-04-25T06:00:36.348Z,13.74
2017-04-25T06:01:37.598Z,13.71
2017-04-25T06:02:38.925Z,13.69
2017-04-25T06:03:40.166Z,13.54
2017-04-25T06:04:41.401Z,13.3
2017-04-25T06:05:42.683Z,12.78
2017-04-25T06:06:43.909Z,12.51
2017-04-25T06:07:45.156Z,12.3
2017-04-25T06:08:46.390Z,11.93
2017-04-25T06:09:47.632Z,11.75
2017-04-25T06:10:48.900Z,11.49
2017-04-25T06:11:50.143Z,11.39
2017-04-25T06:12:51.363Z,11.5
2017-04-25T06:13:52.665Z,11.53
2017-04-25T06:14:53.895Z,11.54
2017-04-25T06:15:55.146Z,11.68
2017-04-25T06:16:56.397Z,11.68
2017-04-25T06:17:57.637Z,11.87
2017-04-25T06:18:58.882Z,11.83
2017-04-25T06:20:00.170Z,11.7
2017-04-25T06:21:01.520Z,11.54
2017-04-25T06:22:02.789Z,11.38
2017-04-25T06:23:04.022Z,11.25
2017-04-25T06:24:05.240Z,11.11
2017-04-25T06:25:06.488Z,10.84
2017-04-25T06:26:07.752Z,10.88
2017-04-25T06:27:08.993Z,10.86
2017-04-25T06:28:10.247Z,10.83
2017-04-25T06:29:11.488Z,10.8
2017-04-25T06:30:12.737Z,10.84
2017-04-25T06:31:13.990Z,10.83
2017-04-25T06:32:15.218Z,10.8
2017-04-25T06:33:16.695Z,10.63
2017-04-25T06:34:17.921Z,10.78
2017-04-25T06:35:19.175Z,10.7
2017-04-25T06:36:20.399Z,10.58
2017-04-25T06:37:21.638Z,10.76
2017-04-25T06:38:23.027Z,10.66
2017-04-25T06:39:24.384Z,10.73
2017-04-25T06:40:25.642Z,10.65
2017-04-25T06:41:26.870Z,10.77
2017-04-25T06:42:28.113Z,11.17
2017-04-25T06:43:29.392Z,11.5
2017-04-25T06:44:30.828Z,12.15
2017-04-25T06:45:32.039Z,12.41
2017-04-25T06:46:33.302Z,12.93
2017-04-25T06:47:34.536Z,13.7
2017-04-25T06:48:35.777Z,14.21
2017-04-25T06:49:37.034Z,14.52
2017-04-25T06:50:38.310Z,14.87
2017-04-25T06:51:39.629Z,14.69
2017-04-25T06:52:40.881Z,14.94
2017-04-25T06:53:42.136Z,15.43
2017-04-25T06:54:43.379Z,15.7
2017-04-25T06:55:44.732Z,16.07
2017-04-25T06:56:45.973Z,16.58
2017-04-25T06:57:47.228Z,16.41
2017-04-25T06:58:48.497Z,16.35
2017-04-25T06:59:49.746Z,16.12
2017-04-25T07:00:50.993Z,16
2017-04-25T07:01:52.288Z,16.25
2017-04-25T07:02:53.544Z,16.4
2017-04-25T07:03:54.900Z,16.7
2017-04-25T07:04:56.195Z,17.07
2017-04-25T07:05:57.403Z,17.43
2017-04-25T07:06:58.873Z,17.22
2017-04-25T07:08:00.110Z,17.66
2017-04-25T07:09:01.361Z,18.31
2017-04-25T07:10:02.741Z,18.74
2017-04-25T07:11:03.987Z,18.95
2017-04-25T07:12:05.193Z,18.64
2017-04-25T07:13:06.468Z,17.78
2017-04-25T07:14:07.705Z,17.25
2017-04-25T07:15:08.978Z,16.67
2017-04-25T07:16:10.275Z,15.97
2017-04-25T07:17:11.516Z,15.46
2017-04-25T07:18:12.893Z,14.62
2017-04-25T07:19:14.122Z,14.07
2017-04-25T07:20:15.370Z,14.14
2017-04-25T07:21:16.655Z,14.31
2017-04-25T07:22:17.879Z,14.99
2017-04-25T07:23:19.174Z,15.72
2017-04-25T07:24:20.420Z,16.34
2017-04-25T07:25:21.675Z,16.98
2017-04-25T07:26:22.999Z,16.62
2017-04-25T07:27:24.246Z,16.52
2017-04-25T07:28:25.513Z,16.25
2017-04-25T07:29:26.754Z,15.82
2017-04-25T07:30:27.997Z,15.38
2017-04-25T07:31:29.243Z,15.12
2017-04-25T07:32:30.533Z,14.81
2017-04-25T07:33:31.812Z,14.69
2017-04-25T07:34:33.086Z,14.84
2017-04-25T07:35:34.337Z,14.47
2017-04-25T07:36:35.618Z,14.21
2017-04-25T07:37:36.909Z,14.01
2017-04-25T07:38:38.124Z,13.96
2017-04-25T07:39:39.397Z,14.38
2017-04-25T07:40:40.657Z,14.72
2017-04-25T07:41:41.896Z,14.71
2017-04-25T07:42:43.261Z,14.47
2017-04-25T07:43:44.522Z,14.24
2017-04-25T07:44:45.748Z,14.8
2017-04-25T07:45:47.037Z,15.48
2017-04-25T07:46:48.284Z,16.12
2017-04-25T07:47:49.571Z,17.03
2017-04-25T07:48:50.826Z,17.5
2017-04-25T07:49:52.039Z,18.25
2017-04-25T07:50:53.300Z,18.99
2017-04-25T07:51:54.545Z,18.91
2017-04-25T07:52:55.812Z,18.76
2017-04-25T07:53:57.027Z,18.65
2017-04-25T07:54:58.273Z,18.72
2017-04-25T07:55:59.517Z,19.14
2017-04-25T07:57:00.781Z,19.29
2017-04-25T07:58:02.014Z,19.76
2017-04-25T07:59:03.260Z,20.21
2017-04-25T08:00:04.533Z,20.59
2017-04-25T08:01:05.803Z,20.74
2017-04-25T08:02:07.117Z,20.58
2017-04-25T08:03:08.366Z,20.62
2017-04-25T08:04:09.621Z,21.19
2017-04-25T08:05:10.878Z,21.13
2017-04-25T08:06:12.123Z,20.8
2017-04-25T08:07:13.396Z,20.91
2017-04-25T08:08:14.685Z,20.74
2017-04-25T08:09:15.911Z,20.5
2017-04-25T08:10:17.147Z,20.53
2017-04-25T08:11:18.414Z,20.49
2017-04-25T08:12:19.658Z,19.97
2017-04-25T08:13:20.986Z,18.94
2017-04-25T08:14:22.241Z,18.18
2017-04-25T08:15:23.501Z,18
2017-04-25T08:16:24.773Z,17.74
2017-04-25T08:17:26.035Z,17.04
2017-04-25T08:18:27.297Z,16.48
2017-04-25T08:19:28.580Z,16.12
2017-04-25T08:20:29.845Z,16.4
2017-04-25T08:21:31.082Z,16.52
2017-04-25T08:22:32.319Z,16.3
2017-04-25T08:23:33.560Z,15.86
2017-04-25T08:24:34.900Z,15.52
2017-04-25T08:25:36.145Z,15.43
2017-04-25T08:26:37.500Z,15.3
2017-04-25T08:27:38.718Z,15.03
2017-04-25T08:28:39.957Z,14.83
2017-04-25T08:29:41.253Z,14.69
2017-04-25T08:30:42.561Z,14.38
2017-04-25T08:31:43.782Z,14.16
2017-04-25T08:32:45.067Z,14.09
2017-04-25T08:33:46.298Z,13.89
2017-04-25T08:34:47.537Z,13.69
2017-04-25T08:35:48.818Z,13.54
2017-04-25T08:36:50.146Z,13.4
2017-04-25T08:37:51.480Z,13.63
2017-04-25T08:38:52.705Z,14.21
2017-04-25T08:39:53.953Z,15.3
2017-04-25T08:40:55.216Z,15.94
2017-04-25T08:41:56.452Z,16.35
2017-04-25T08:42:57.737Z,16
2017-04-25T08:43:59.003Z,15.79
2017-04-25T08:45:00.265Z,15.41
2017-04-25T08:46:01.506Z,14.81
2017-04-25T08:47:02.772Z,14.44
2017-04-25T08:48:04.022Z,14.44
2017-04-25T08:49:05.271Z,14.86
2017-04-25T08:50:06.516Z,14.91
2017-04-25T08:51:07.785Z,15.2
2017-04-25T08:52:09.045Z,15.09
2017-04-25T08:53:10.293Z,15.08
2017-04-25T08:54:11.542Z,15.31
2017-04-25T08:55:12.848Z,15.72
2017-04-25T08:56:14.115Z,16.55
2017-04-25T08:57:15.369Z,17.1
2017-04-25T08:58:16.739Z,17.81
2017-04-25T08:59:17.973Z,17.81
2017-04-25T09:00:19.200Z,17.94
2017-04-25T09:01:20.477Z,18
2017-04-25T09:02:21.738Z,17.54
2017-04-25T09:03:23.016Z,17.46
2017-04-25T09:04:24.318Z,16.88
2017-04-25T09:05:25.564Z,16.34
2017-04-25T09:06:26.836Z,15.68
2017-04-25T09:07:28.067Z,15.09
2017-04-25T09:08:29.514Z,14.81
2017-04-25T09:09:30.763Z,14.49
2017-04-25T09:10:32.124Z,14.29
2017-04-25T09:11:33.248Z,13.94
2017-04-25T09:12:34.505Z,13.84
2017-04-25T09:13:35.753Z,13.83
2017-04-25T09:14:37.012Z,14.09
2017-04-25T09:15:38.281Z,15.01
2017-04-25T09:16:39.504Z,15.66
2017-04-25T09:17:40.745Z,16.4
2017-04-25T09:18:42.004Z,16.7
2017-04-25T09:19:43.283Z,16.5
2017-04-25T09:20:44.576Z,16.5
2017-04-25T09:21:45.881Z,17.06
2017-04-25T09:22:47.168Z,17.47
2017-04-25T09:23:48.431Z,18.09
2017-04-25T09:24:49.701Z,18.73
2017-04-25T09:25:50.956Z,19.58
2017-04-25T09:26:52.326Z,20.41
2017-04-25T09:27:53.608Z,21.16
2017-04-25T09:28:54.835Z,21.21
2017-04-25T09:29:56.103Z,21.35
2017-04-25T09:30:57.400Z,21.6
2017-04-25T09:31:58.768Z,21.5
2017-04-25T09:33:00.002Z,20.72
2017-04-25T09:34:01.351Z,20.13
2017-04-25T09:35:02.589Z,19.47
2017-04-25T09:36:03.852Z,18.77
2017-04-25T09:37:05.129Z,18.18
2017-04-25T09:38:06.356Z,18.07
2017-04-25T09:39:07.617Z,18.44
2017-04-25T09:40:08.882Z,19.24
2017-04-25T09:41:10.123Z,19.58
2017-04-25T09:42:11.360Z,20.2
2017-04-25T09:43:12.625Z,20.66
2017-04-25T09:44:13.870Z,20.2
2017-04-25T09:45:15.117Z,20.13
2017-04-25T09:46:16.407Z,19.75
2017-04-25T09:47:17.661Z,19.35
2017-04-25T09:48:18.940Z,19.25
2017-04-25T09:49:20.192Z,19.54
2017-04-25T09:50:21.441Z,19.91
2017-04-25T09:51:22.713Z,20.64
2017-04-25T09:52:23.954Z,21.14
2017-04-25T09:53:25.253Z,21.06
2017-04-25T09:54:26.572Z,20.51
2017-04-25T09:55:27.782Z,19.97
2017-04-25T09:56:29.134Z,20.18
2017-04-25T09:57:30.424Z,20.95
2017-04-25T09:58:31.675Z,21.78
2017-04-25T09:59:32.918Z,21.9
2017-04-25T10:00:34.219Z,21.81
2017-04-25T10:01:35.457Z,21.69
2017-04-25T10:02:36.815Z,21.13
2017-04-25T10:03:38.076Z,21.17
2017-04-25T10:04:39.327Z,20.65
2017-04-25T10:05:40.616Z,20.23
2017-04-25T10:06:41.880Z,19.63
2017-04-25T10:07:43.136Z,18.82
2017-04-25T10:08:44.387Z,18.17
2017-04-25T10:09:45.654Z,17.63
2017-04-25T10:10:46.960Z,17.18
2017-04-25T10:11:48.319Z,16.58
2017-04-25T10:12:49.562Z,15.99
2017-04-25T10:13:50.812Z,15.51
2017-04-25T10:14:52.107Z,15.26
2017-04-25T10:15:53.328Z,14.61
2017-04-25T10:16:54.575Z,14.49
2017-04-25T10:17:55.833Z,14.2
2017-04-25T10:18:57.073Z,14.14
2017-04-25T10:19:58.378Z,14.2
2017-04-25T10:20:59.650Z,14.06
2017-04-25T10:22:00.877Z,14.06
2017-04-25T10:23:02.169Z,13.88
2017-04-25T10:24:03.437Z,13.77
2017-04-25T10:25:04.747Z,13.54
2017-04-25T10:26:05.962Z,13.29
2017-04-25T10:27:07.236Z,12.93
2017-04-25T10:28:08.481Z,12.39
2017-04-25T10:29:09.773Z,12.02
2017-04-25T10:30:11.012Z,11.65
2017-04-25T10:31:12.263Z,11.47
2017-04-25T10:32:13.523Z,11.36
2017-04-25T10:33:14.773Z,11.28
2017-04-25T10:34:16.000Z,11.21
2017-04-25T10:35:17.283Z,11.46
2017-04-25T10:36:18.652Z,11.82
2017-04-25T10:37:19.898Z,12.13
2017-04-25T10:38:21.158Z,12.29
2017-04-25T10:39:22.395Z,12.64
2017-04-25T10:40:23.639Z,12.67
2017-04-25T10:41:24.923Z,12.66
2017-04-25T10:42:26.181Z,12.67
2017-04-25T10:43:27.460Z,12.64
2017-04-25T10:44:28.699Z,12.77
2017-04-25T10:45:29.978Z,12.84
2017-04-25T10:46:31.350Z,12.93
2017-04-25T10:47:32.602Z,13.03
2017-04-25T10:48:33.841Z,13.15
2017-04-25T10:49:35.209Z,13.04
2017-04-25T10:50:36.429Z,12.89
2017-04-25T10:51:37.658Z,12.67
2017-04-25T10:52:38.933Z,12.74
2017-04-25T10:53:40.204Z,12.49
2017-04-25T10:54:41.439Z,12.38
2017-04-25T10:55:42.782Z,12.16
2017-04-25T10:56:44.001Z,11.99
2017-04-25T10:57:45.252Z,11.97
2017-04-25T10:58:46.501Z,12.04
2017-04-25T10:59:47.748Z,12.12
2017-04-25T11:00:48.977Z,12.13
2017-04-25T11:01:50.370Z,12.04
2017-04-25T11:02:51.495Z,12.05
2017-04-25T11:03:52.748Z,12.16
2017-04-25T11:04:54.003Z,12.41
2017-04-25T11:05:55.360Z,12.46
2017-04-25T11:06:56.746Z,12.57
2017-04-25T11:07:57.988Z,12.62
2017-04-25T11:08:59.258Z,12.48
2017-04-25T11:10:00.500Z,12.51
2017-04-25T11:11:01.740Z,12.7
2017-04-25T11:12:02.987Z,12.82
2017-04-25T11:13:04.249Z,13.03
2017-04-25T11:14:05.542Z,13.11
2017-04-25T11:15:06.804Z,13.04
2017-04-25T11:16:08.033Z,12.85
2017-04-25T11:17:09.282Z,12.71
2017-04-25T11:18:10.529Z,11.94
2017-04-25T11:19:11.773Z,11.34
2017-04-25T11:20:13.173Z,10.47
2017-04-25T11:21:14.414Z,10
2017-04-25T11:22:15.682Z,9.6
2017-04-25T11:23:16.929Z,9.06
2017-04-25T11:24:18.183Z,8.68
2017-04-25T11:25:19.506Z,8.4
2017-04-25T11:26:20.781Z,8.14
2017-04-25T11:27:22.118Z,7.92
2017-04-25T11:28:23.335Z,7.72
2017-04-25T11:29:24.597Z,7.52
2017-04-25T11:30:25.843Z,7.4
2017-04-25T11:31:27.170Z,7.16
2017-04-25T11:32:28.434Z,7.15
2017-04-25T11:33:29.691Z,7.13
2017-04-25T11:34:30.901Z,7.19
2017-04-25T11:35:32.161Z,7.32
2017-04-25T11:36:33.451Z,7.5
2017-04-25T11:37:34.701Z,7.59
2017-04-25T11:38:35.919Z,7.79
2017-04-25T11:39:37.224Z,8.08
2017-04-25T11:40:38.457Z,8.2
2017-04-25T11:41:39.702Z,8.47
2017-04-25T11:42:40.953Z,8.73
2017-04-25T11:43:42.198Z,8.86
2017-04-25T11:44:43.438Z,8.94
2017-04-25T11:45:44.694Z,9.09
2017-04-25T11:46:45.950Z,9.16
2017-04-25T11:47:47.179Z,9.23
2017-04-25T11:48:48.416Z,9.12
2017-04-25T11:49:49.694Z,9.1
2017-04-25T11:50:50.981Z,9.16
2017-04-25T11:51:52.228Z,9.21
2017-04-25T11:52:53.560Z,9.31
2017-04-25T11:53:54.781Z,9.28
2017-04-25T11:54:56.044Z,9.38
2017-04-25T11:55:57.276Z,9.42
2017-04-25T11:56:58.532Z,9.43
2017-04-25T11:57:59.819Z,9.42
2017-04-25T11:59:01.086Z,9.52
2017-04-25T12:00:02.322Z,9.56
2017-04-25T12:01:03.604Z,9.56
2017-04-25T12:02:04.817Z,9.6
2017-04-25T12:03:06.072Z,9.71
2017-04-25T12:04:07.306Z,9.86
2017-04-25T12:05:08.548Z,10.1
2017-04-25T12:06:09.794Z,10.33
2017-04-25T12:07:11.080Z,10.37
2017-04-25T12:08:12.354Z,10.63
2017-04-25T12:09:13.608Z,10.76
2017-04-25T12:10:14.897Z,10.83
2017-04-25T12:11:16.138Z,10.86
2017-04-25T12:12:17.423Z,11.01
2017-04-25T12:13:18.664Z,11.01
2017-04-25T12:14:19.924Z,11.06
2017-04-25T12:15:21.190Z,11.19
2017-04-25T12:16:22.517Z,11.28
2017-04-25T12:17:23.867Z,11.27
2017-04-25T12:18:25.125Z,11.21
2017-04-25T12:19:26.360Z,11.2
2017-04-25T12:20:27.597Z,11.2
2017-04-25T12:21:28.828Z,11.07
2017-04-25T12:22:30.087Z,11.06
2017-04-25T12:23:31.346Z,11.01
2017-04-25T12:24:32.585Z,11.14
2017-04-25T12:25:33.829Z,11.07
2017-04-25T12:26:35.082Z,11.19
2017-04-25T12:27:36.333Z,11.39
2017-04-25T12:28:37.583Z,11.47
2017-04-25T12:29:38.838Z,11.46
2017-04-25T12:30:40.059Z,11.41
2017-04-25T12:31:41.335Z,11.57
2017-04-25T12:32:42.560Z,11.57
2017-04-25T12:33:43.799Z,11.62
2017-04-25T12:34:45.072Z,11.56
2017-04-25T12:35:46.317Z,11.65
2017-04-25T12:36:47.551Z,11.65
2017-04-25T12:37:48.862Z,11.89
2017-04-25T12:38:50.077Z,12.02
2017-04-25T12:39:51.558Z,12.04
2017-04-25T12:40:52.998Z,12.09
2017-04-25T12:41:54.310Z,12.05
2017-04-25T12:42:55.540Z,12.08
2017-04-25T12:43:56.780Z,12.19
2017-04-25T12:44:58.034Z,12.33
2017-04-25T12:45:59.319Z,12.31
2017-04-25T12:47:00.570Z,12.38
2017-04-25T12:48:01.881Z,12.41
2017-04-25T12:49:03.285Z,12.42
2017-04-25T12:50:04.536Z,12.44
2017-04-25T12:51:05.766Z,12.39
2017-04-25T12:52:07.063Z,12.37
2017-04-25T12:53:08.334Z,12.45
2017-04-25T12:54:09.586Z,12.49
2017-04-25T12:55:10.844Z,12.39
2017-04-25T12:56:12.103Z,12.48
2017-04-25T12:57:13.323Z,12.41
2017-04-25T12:58:14.621Z,12.39
2017-04-25T12:59:16.032Z,12.45
2017-04-25T13:00:17.269Z,12.51
2017-04-25T13:01:18.547Z,12.56
2017-04-25T13:02:19.789Z,12.64
2017-04-25T13:03:21.129Z,12.71
2017-04-25T13:04:22.525Z,12.77
2017-04-25T13:05:23.771Z,12.84
2017-04-25T13:06:25.099Z,13.09
2017-04-25T13:07:26.321Z,13.18
2017-04-25T13:08:27.622Z,13.47
2017-04-25T13:09:28.862Z,13.67
2017-04-25T13:10:30.117Z,13.77
2017-04-25T13:11:31.364Z,13.74
2017-04-25T13:12:32.644Z,13.52
2017-04-25T13:13:33.853Z,13.47
2017-04-25T13:14:35.216Z,13.09
2017-04-25T13:15:36.470Z,12.95
2017-04-25T13:16:37.712Z,12.7
2017-04-25T13:17:38.978Z,12.69
2017-04-25T13:18:40.226Z,12.66
2017-04-25T13:19:41.495Z,12.59
2017-04-25T13:20:42.719Z,12.59
2017-04-25T13:21:43.967Z,12.41
2017-04-25T13:22:45.260Z,12.34
2017-04-25T13:23:46.600Z,12.09
2017-04-25T13:24:47.898Z,12.04